createdAt,value
2018-06-25T00:01:20.820Z,38.82
2018-06-25T00:03:47.198Z,38.75
2018-06-25T00:06:13.575Z,38.89
2018-06-25T00:08:39.940Z,38.85
2018-06-25T00:11:06.303Z,38.88
2018-06-25T00:13:32.630Z,38.72
2018-06-25T00:15:58.984Z,38.72
2018-06-25T00:18:25.304Z,38.77
2018-06-25T00:20:51.663Z,38.95
2018-06-25T00:23:17.990Z,38.94
2018-06-25T00:25:44.313Z,38.97
2018-06-25T00:28:10.665Z,38.85
2018-06-25T00:30:37.104Z,38.77
2018-06-25T00:33:03.425Z,38.94
2018-06-25T00:35:29.743Z,39.10
2018-06-25T00:37:56.115Z,39.02
2018-06-25T00:40:22.437Z,39.07
2018-06-25T00:42:48.781Z,39.10
2018-06-25T00:45:15.190Z,39.02
2018-06-25T00:47:41.510Z,39.10
2018-06-25T00:50:07.820Z,39.11
2018-06-25T00:52:34.226Z,39.11
2018-06-25T00:55:00.554Z,39.39
2018-06-25T00:57:26.885Z,39.26
2018-06-25T00:59:53.236Z,39.17
2018-06-25T01:02:19.548Z,39.36
2018-06-25T01:04:45.940Z,39.30
2018-06-25T01:07:12.305Z,39.59
2018-06-25T01:09:38.635Z,39.85
2018-06-25T01:12:05.000Z,39.90
2018-06-25T01:14:31.322Z,40.04
2018-06-25T01:16:57.662Z,40.19
2018-06-25T01:19:24.089Z,40.33
2018-06-25T01:21:50.468Z,40.37
2018-06-25T01:24:16.824Z,40.55
2018-06-25T01:26:43.137Z,40.45
2018-06-25T01:29:09.504Z,40.41
2018-06-25T01:31:35.879Z,40.55
2018-06-25T01:34:02.310Z,40.65
2018-06-25T01:36:28.710Z,40.68
2018-06-25T01:38:55.111Z,40.67
2018-06-25T01:41:21.436Z,40.73
2018-06-25T01:43:47.762Z,40.67
2018-06-25T01:46:14.124Z,40.60
2018-06-25T01:48:40.460Z,40.75
2018-06-25T01:51:06.845Z,40.78
2018-06-25T01:53:33.178Z,40.76
2018-06-25T01:55:59.536Z,40.74
2018-06-25T01:58:25.863Z,40.75
2018-06-25T02:00:52.252Z,40.85
2018-06-25T02:03:18.573Z,40.72
2018-06-25T02:05:44.903Z,40.69
2018-06-25T02:08:11.271Z,40.91
2018-06-25T02:10:37.605Z,40.91
2018-06-25T02:13:03.951Z,40.98
2018-06-25T02:15:30.281Z,40.94
2018-06-25T02:17:56.624Z,40.92
2018-06-25T02:20:22.951Z,40.95
2018-06-25T02:22:49.275Z,40.88
2018-06-25T02:25:15.607Z,40.88
2018-06-25T02:27:41.971Z,41.02
2018-06-25T02:30:08.335Z,40.92
2018-06-25T02:32:34.702Z,41.04
2018-06-25T02:35:01.029Z,41.09
2018-06-25T02:37:27.360Z,41.04
2018-06-25T02:39:53.724Z,41.10
2018-06-25T02:42:20.083Z,41.16
2018-06-25T02:44:46.405Z,41.03
2018-06-25T02:47:12.771Z,41.33
2018-06-25T02:49:39.103Z,41.08
2018-06-25T02:52:05.471Z,41.29
2018-06-25T02:54:31.793Z,41.37
2018-06-25T02:56:58.124Z,41.24
2018-06-25T02:59:24.447Z,41.36
2018-06-25T03:01:50.784Z,41.42
2018-06-25T03:04:17.158Z,41.42
2018-06-25T03:06:43.485Z,41.47
2018-06-25T03:09:09.856Z,41.53
2018-06-25T03:11:36.189Z,41.62
2018-06-25T03:14:02.528Z,41.55
2018-06-25T03:16:28.863Z,41.56
2018-06-25T03:18:55.245Z,41.44
2018-06-25T03:21:21.565Z,41.45
2018-06-25T03:23:47.891Z,41.39
2018-06-25T03:26:14.252Z,41.28
2018-06-25T03:28:40.629Z,41.33
2018-06-25T03:31:06.943Z,41.33
2018-06-25T03:33:33.268Z,41.32
2018-06-25T03:35:59.659Z,41.87
2018-06-25T03:38:25.971Z,41.62
2018-06-25T03:40:52.289Z,41.52
2018-06-25T03:43:18.728Z,41.57
2018-06-25T03:45:45.058Z,41.62
2018-06-25T03:48:11.465Z,41.45
2018-06-25T03:50:37.818Z,41.82
2018-06-25T03:53:04.149Z,41.79
2018-06-25T03:55:30.520Z,41.72
2018-06-25T03:57:56.847Z,41.74
2018-06-25T04:00:23.208Z,41.55
2018-06-25T04:02:49.557Z,41.63
2018-06-25T04:05:15.918Z,41.55
2018-06-25T04:07:42.352Z,41.65
2018-06-25T04:10:08.695Z,41.66
2018-06-25T04:12:35.013Z,41.71
2018-06-25T04:15:01.338Z,41.74
2018-06-25T04:17:27.724Z,41.69
2018-06-25T04:19:54.078Z,41.58
2018-06-25T04:22:20.440Z,41.68
2018-06-25T04:24:46.771Z,41.68
2018-06-25T04:27:13.164Z,41.65
2018-06-25T04:29:39.496Z,41.78
2018-06-25T04:32:06.150Z,41.76
2018-06-25T04:34:32.524Z,41.74
2018-06-25T04:36:58.871Z,41.85
2018-06-25T04:39:25.183Z,41.84
2018-06-25T04:41:51.506Z,41.85
2018-06-25T04:44:17.866Z,41.84
2018-06-25T04:46:44.231Z,41.88
2018-06-25T04:49:10.673Z,41.84
2018-06-25T04:51:37.002Z,41.91
2018-06-25T04:54:03.323Z,41.98
2018-06-25T04:56:29.657Z,42.00
2018-06-25T04:58:56.385Z,41.94
2018-06-25T05:01:22.756Z,41.96
2018-06-25T05:03:49.076Z,42.03
2018-06-25T05:06:15.632Z,42.06
2018-06-25T05:08:41.957Z,42.16
2018-06-25T05:11:08.344Z,42.16
2018-06-25T05:13:34.868Z,42.11
2018-06-25T05:16:01.213Z,42.19
2018-06-25T05:18:27.575Z,42.25
2018-06-25T05:20:53.937Z,42.29
2018-06-25T05:23:21.579Z,42.32
2018-06-25T05:25:48.087Z,42.14
2018-06-25T05:28:14.404Z,42.36
2018-06-25T05:30:40.825Z,42.56
2018-06-25T05:33:07.202Z,42.45
2018-06-25T05:35:33.642Z,42.56
2018-06-25T05:37:59.966Z,42.75
2018-06-25T05:40:26.337Z,42.39
2018-06-25T05:42:52.666Z,42.58
2018-06-25T05:45:19.070Z,42.66
2018-06-25T05:47:45.440Z,42.66
2018-06-25T05:50:11.772Z,42.79
2018-06-25T05:52:38.083Z,42.87
2018-06-25T05:55:04.468Z,43.01
2018-06-25T05:57:30.812Z,42.87
2018-06-25T05:59:57.188Z,43.11
2018-06-25T06:02:23.543Z,43.20
2018-06-25T06:04:49.980Z,43.19
2018-06-25T06:07:16.411Z,42.94
2018-06-25T06:09:43.011Z,42.95
2018-06-25T06:12:09.598Z,42.96
2018-06-25T06:14:35.989Z,43.10
2018-06-25T06:17:02.382Z,43.07
2018-06-25T06:19:31.899Z,43.11
2018-06-25T06:21:58.273Z,43.06
2018-06-25T06:24:24.639Z,42.93
2018-06-25T06:26:51.026Z,43.14
2018-06-25T06:29:17.351Z,43.58
2018-06-25T06:31:43.728Z,43.13
2018-06-25T06:34:10.112Z,43.16
2018-06-25T06:36:36.438Z,43.22
2018-06-25T06:39:02.822Z,43.74
2018-06-25T06:41:29.263Z,43.19
2018-06-25T06:43:55.799Z,43.08
2018-06-25T06:46:22.238Z,43.14
2018-06-25T06:48:50.230Z,43.20
2018-06-25T06:51:17.475Z,43.87
2018-06-25T06:53:44.109Z,43.35
2018-06-25T06:56:10.581Z,43.41
2018-06-25T06:58:36.992Z,43.41
2018-06-25T07:01:03.650Z,43.10
2018-06-25T07:03:30.197Z,42.92
2018-06-25T07:05:56.529Z,43.20
2018-06-25T07:08:22.927Z,42.81
2018-06-25T07:10:49.479Z,42.84
2018-06-25T07:13:15.939Z,42.82
2018-06-25T07:15:42.689Z,42.86
2018-06-25T07:18:09.141Z,42.84
2018-06-25T07:20:35.624Z,42.95
2018-06-25T07:23:02.096Z,43.01
2018-06-25T07:25:28.799Z,43.10
2018-06-25T07:27:55.250Z,42.42
2018-06-25T07:30:21.607Z,42.73
2018-06-25T07:32:48.033Z,42.73
2018-06-25T07:35:14.495Z,42.56
2018-06-25T07:37:41.152Z,42.60
2018-06-25T07:40:07.549Z,42.36
2018-06-25T07:42:34.014Z,42.35
2018-06-25T07:45:00.413Z,42.52
2018-06-25T07:47:26.990Z,42.62
2018-06-25T07:49:53.717Z,42.82
2018-06-25T07:52:20.181Z,42.54
2018-06-25T07:54:46.765Z,42.57
2018-06-25T07:57:13.357Z,42.49
2018-06-25T07:59:39.844Z,42.45
2018-06-25T08:02:06.477Z,42.62
2018-06-25T08:04:33.257Z,42.69
2018-06-25T08:06:59.764Z,42.63
2018-06-25T08:09:26.319Z,42.78
2018-06-25T08:11:53.525Z,42.55
2018-06-25T08:14:20.470Z,42.55
2018-06-25T08:16:47.102Z,42.52
2018-06-25T08:19:14.187Z,42.55
2018-06-25T08:21:40.849Z,42.48
2018-06-25T08:24:07.498Z,42.36
2018-06-25T08:26:34.081Z,42.33
2018-06-25T08:29:00.637Z,42.53
2018-06-25T08:31:27.287Z,42.34
2018-06-25T08:33:53.724Z,42.24
2018-06-25T08:36:20.227Z,41.97
2018-06-25T08:38:46.965Z,42.20
2018-06-25T08:41:15.173Z,42.27
2018-06-25T08:43:42.181Z,42.33
2018-06-25T08:46:10.319Z,42.44
2018-06-25T08:48:36.862Z,42.36
2018-06-25T08:51:03.348Z,42.15
2018-06-25T08:53:30.221Z,42.29
2018-06-25T08:55:56.763Z,41.97
2018-06-25T08:58:23.412Z,42.32
2018-06-25T09:00:49.917Z,42.19
2018-06-25T09:03:16.323Z,42.08
2018-06-25T09:05:42.734Z,42.12
2018-06-25T09:08:09.152Z,41.94
2018-06-25T09:10:35.647Z,41.78
2018-06-25T09:13:02.095Z,42.23
2018-06-25T09:15:28.503Z,41.65
2018-06-25T09:17:55.230Z,41.97
2018-06-25T09:20:21.865Z,41.76
2018-06-25T09:22:49.205Z,41.97
2018-06-25T09:25:16.279Z,41.95
2018-06-25T09:27:42.775Z,41.80
2018-06-25T09:30:09.127Z,41.78
2018-06-25T09:32:35.674Z,41.80
2018-06-25T09:35:02.484Z,41.92
2018-06-25T09:37:28.972Z,41.82
2018-06-25T09:39:55.476Z,41.83
2018-06-25T09:42:22.458Z,41.90
2018-06-25T09:44:50.434Z,41.73
2018-06-25T09:47:17.880Z,41.65
2018-06-25T09:49:45.669Z,41.23
2018-06-25T09:52:12.605Z,41.76
2018-06-25T09:54:39.386Z,41.58
2018-06-25T09:57:06.991Z,41.71
2018-06-25T09:59:34.452Z,41.70
2018-06-25T10:02:01.891Z,41.59
2018-06-25T10:04:29.125Z,41.54
2018-06-25T10:06:56.009Z,41.27
2018-06-25T10:09:22.662Z,41.53
2018-06-25T10:11:49.763Z,41.35
2018-06-25T10:14:17.686Z,41.80
2018-06-25T10:16:44.973Z,41.47
2018-06-25T10:19:11.515Z,41.46
2018-06-25T10:21:38.395Z,41.33
2018-06-25T10:24:05.855Z,41.58
2018-06-25T10:26:33.083Z,41.38
2018-06-25T10:29:00.282Z,41.39
2018-06-25T10:31:27.493Z,41.33
2018-06-25T10:33:54.288Z,41.40
2018-06-25T10:36:21.132Z,41.59
2018-06-25T10:38:47.807Z,41.45
2018-06-25T10:41:15.064Z,41.31
2018-06-25T10:43:42.083Z,41.54
2018-06-25T10:46:08.815Z,41.58
2018-06-25T10:48:35.706Z,41.31
2018-06-25T10:51:03.325Z,41.70
2018-06-25T10:53:30.181Z,41.51
2018-06-25T10:55:59.088Z,41.59
2018-06-25T10:58:26.245Z,41.45
2018-06-25T11:00:52.986Z,41.44
2018-06-25T11:03:20.188Z,41.55
2018-06-25T11:05:48.348Z,41.31
2018-06-25T11:08:15.115Z,41.33
2018-06-25T11:10:41.953Z,41.43
2018-06-25T11:13:08.933Z,41.42
2018-06-25T11:15:35.862Z,41.76
2018-06-25T11:18:02.694Z,41.33
2018-06-25T11:20:29.937Z,41.39
2018-06-25T11:22:56.802Z,41.51
2018-06-25T11:25:23.754Z,41.42
2018-06-25T11:27:50.672Z,41.09
2018-06-25T11:30:17.381Z,41.19
2018-06-25T11:32:45.143Z,41.05
2018-06-25T11:35:12.161Z,40.97
2018-06-25T11:37:40.600Z,41.18
2018-06-25T11:40:08.248Z,41.13
2018-06-25T11:42:35.865Z,41.04
2018-06-25T11:47:35.623Z,40.98
2018-06-25T11:50:02.306Z,41.07
2018-06-25T11:52:29.322Z,40.84
2018-06-25T11:54:56.161Z,40.88
2018-06-25T11:57:23.252Z,41.36
2018-06-25T11:59:50.201Z,40.78
2018-06-25T12:02:17.105Z,40.88
2018-06-25T12:04:43.845Z,40.74
2018-06-25T12:07:10.637Z,40.65
2018-06-25T12:09:38.464Z,40.85
2018-06-25T12:12:06.135Z,40.93
2018-06-25T12:14:33.827Z,40.77
2018-06-25T12:17:01.256Z,40.74
2018-06-25T12:22:10.634Z,40.84
2018-06-25T12:24:37.458Z,41.08
2018-06-25T12:27:04.468Z,40.99
2018-06-25T12:29:31.559Z,40.75
2018-06-25T12:31:58.805Z,40.81
2018-06-25T12:34:26.561Z,40.91
2018-06-25T12:36:54.327Z,41.11
2018-06-25T12:39:21.541Z,40.87
2018-06-25T12:41:48.790Z,40.65
2018-06-25T12:44:15.508Z,40.64
2018-06-25T12:46:41.960Z,40.72
2018-06-25T12:49:08.474Z,40.23
2018-06-25T12:51:35.278Z,40.41
2018-06-25T12:54:01.640Z,39.86
2018-06-25T12:56:28.004Z,40.50
2018-06-25T12:58:54.463Z,40.47
2018-06-25T13:01:21.405Z,40.45
2018-06-25T13:03:49.748Z,40.47
2018-06-25T13:06:16.590Z,40.65
2018-06-25T13:08:43.153Z,40.66
2018-06-25T13:11:09.757Z,40.47
2018-06-25T13:13:36.269Z,40.44
2018-06-25T13:16:02.907Z,40.49
2018-06-25T13:18:29.361Z,40.49
2018-06-25T13:20:55.983Z,40.41
2018-06-25T13:23:22.491Z,40.46
2018-06-25T13:28:23.013Z,40.64
2018-06-25T13:30:49.643Z,40.80
2018-06-25T13:33:16.197Z,40.91
2018-06-25T13:35:43.662Z,40.71
2018-06-25T13:38:10.749Z,40.81
2018-06-25T13:43:16.123Z,40.46
2018-06-25T13:45:42.553Z,40.42
2018-06-25T13:48:10.337Z,40.15
2018-06-25T13:50:37.002Z,40.33
2018-06-25T13:53:03.673Z,40.31
2018-06-25T13:55:30.647Z,40.27
2018-06-25T13:57:57.535Z,40.39
2018-06-25T14:00:24.004Z,40.58
2018-06-25T14:02:50.407Z,40.16
2018-06-25T14:05:16.942Z,40.19
2018-06-25T14:07:43.349Z,40.10
2018-06-25T14:10:09.900Z,39.96
2018-06-25T14:12:36.483Z,40.02
2018-06-25T14:15:03.112Z,39.99
2018-06-25T14:17:29.716Z,39.72
2018-06-25T14:19:56.085Z,39.81
2018-06-25T14:22:22.419Z,39.78
2018-06-25T14:24:48.788Z,39.88
2018-06-25T14:27:15.234Z,39.68
2018-06-25T14:29:41.589Z,39.72
2018-06-25T14:32:08.151Z,39.80
2018-06-25T14:34:34.795Z,39.28
2018-06-25T14:37:01.160Z,39.06
2018-06-25T14:39:27.679Z,39.39
2018-06-25T14:41:54.093Z,39.07
2018-06-25T14:44:20.564Z,39.25
2018-06-25T14:46:46.965Z,39.16
2018-06-25T14:49:13.321Z,39.28
2018-06-25T14:51:39.664Z,39.04
2018-06-25T14:54:06.049Z,38.75
2018-06-25T14:56:32.509Z,38.52
2018-06-25T14:58:58.879Z,38.35
2018-06-25T15:01:25.240Z,37.98
2018-06-25T15:03:51.588Z,38.03
2018-06-25T15:06:17.948Z,37.56
2018-06-25T15:08:44.372Z,37.52
2018-06-25T15:11:10.765Z,38.19
2018-06-25T15:13:37.120Z,37.80
2018-06-25T15:16:03.739Z,37.91
2018-06-25T15:18:30.195Z,37.62
2018-06-25T15:20:56.567Z,37.37
2018-06-25T15:23:22.904Z,37.92
2018-06-25T15:25:49.244Z,37.98
2018-06-25T15:28:15.577Z,38.53
2018-06-25T15:30:41.894Z,38.20
2018-06-25T15:33:08.278Z,37.99
2018-06-25T15:35:34.711Z,38.78
2018-06-25T15:38:01.051Z,38.25
2018-06-25T15:40:27.441Z,38.33
2018-06-25T15:42:54.088Z,38.38
2018-06-25T15:45:22.924Z,38.65
2018-06-25T15:47:49.772Z,38.97
2018-06-25T15:50:16.115Z,38.83
2018-06-25T15:52:42.465Z,38.36
2018-06-25T15:55:08.818Z,39.03
2018-06-25T15:57:35.460Z,39.06
2018-06-25T16:00:01.920Z,39.01
2018-06-25T16:02:28.589Z,39.14
2018-06-25T16:04:55.000Z,39.24
2018-06-25T16:09:54.816Z,39.27
2018-06-25T16:12:21.933Z,39.47
2018-06-25T16:14:48.310Z,39.75
2018-06-25T16:17:14.885Z,39.44
2018-06-25T16:19:41.203Z,39.70
2018-06-25T16:22:07.531Z,39.80
2018-06-25T16:24:33.875Z,39.76
2018-06-25T16:27:00.244Z,39.68
2018-06-25T16:29:26.604Z,39.77
2018-06-25T16:31:52.970Z,39.86
2018-06-25T16:34:20.316Z,40.02
2018-06-25T16:36:46.668Z,40.07
2018-06-25T16:39:13.011Z,40.28
2018-06-25T16:41:39.395Z,40.55
2018-06-25T16:44:05.757Z,40.88
2018-06-25T16:46:32.139Z,40.72
2018-06-25T16:48:58.460Z,40.54
2018-06-25T16:51:24.816Z,40.63
2018-06-25T16:53:51.142Z,41.04
2018-06-25T16:56:17.460Z,40.98
2018-06-25T16:58:43.816Z,40.89
2018-06-25T17:01:10.147Z,40.86
2018-06-25T17:03:36.473Z,41.44
2018-06-25T17:06:02.812Z,41.61
2018-06-25T17:08:29.268Z,41.68
2018-06-25T17:10:55.716Z,41.97
2018-06-25T17:13:22.061Z,41.80
2018-06-25T17:15:48.627Z,41.90
2018-06-25T17:18:15.038Z,41.90
2018-06-25T17:20:42.422Z,42.12
2018-06-25T17:23:08.865Z,42.26
2018-06-25T17:25:35.981Z,42.22
2018-06-25T17:28:02.370Z,42.00
2018-06-25T17:30:28.812Z,41.99
2018-06-25T17:32:55.223Z,42.01
2018-06-25T17:35:21.595Z,42.04
2018-06-25T17:37:48.024Z,41.96
2018-06-25T17:40:14.436Z,42.34
2018-06-25T17:42:40.811Z,42.11
2018-06-25T17:45:07.213Z,42.29
2018-06-25T17:47:33.595Z,42.23
2018-06-25T17:49:59.926Z,42.16
2018-06-25T17:52:27.404Z,42.39
2018-06-25T17:54:53.770Z,42.23
2018-06-25T17:57:20.105Z,42.42
2018-06-25T17:59:46.498Z,42.38
2018-06-25T18:02:12.885Z,42.32
2018-06-25T18:04:39.256Z,42.12
2018-06-25T18:07:05.752Z,42.24
2018-06-25T18:09:32.141Z,42.32
2018-06-25T18:11:58.612Z,42.03
2018-06-25T18:14:25.457Z,41.68
2018-06-25T18:16:52.090Z,42.26
2018-06-25T18:19:18.459Z,41.76
2018-06-25T18:21:44.820Z,41.73
2018-06-25T18:24:11.188Z,41.64
2018-06-25T18:26:37.568Z,41.68
2018-06-25T18:29:03.928Z,41.81
2018-06-25T18:31:30.391Z,41.40
2018-06-25T18:33:56.828Z,41.51
2018-06-25T18:36:23.159Z,42.47
2018-06-25T18:38:49.535Z,41.76
2018-06-25T18:41:15.854Z,41.56
2018-06-25T18:43:42.341Z,41.52
2018-06-25T18:46:08.696Z,41.76
2018-06-25T18:48:35.007Z,41.64
2018-06-25T18:51:01.409Z,41.90
2018-06-25T18:53:27.780Z,42.19
2018-06-25T18:55:54.151Z,41.56
2018-06-25T18:58:20.514Z,41.54
2018-06-25T19:00:46.881Z,41.58
2018-06-25T19:03:13.192Z,41.81
2018-06-25T19:05:39.572Z,41.90
2018-06-25T19:08:06.030Z,41.81
2018-06-25T19:10:32.414Z,41.77
2018-06-25T19:12:58.813Z,41.68
2018-06-25T19:15:25.224Z,42.13
2018-06-25T19:17:51.593Z,42.19
2018-06-25T19:20:17.973Z,42.13
2018-06-25T19:22:44.342Z,42.48
2018-06-25T19:25:10.704Z,42.16
2018-06-25T19:27:37.104Z,42.07
2018-06-25T19:30:03.436Z,41.94
2018-06-25T19:32:29.875Z,41.93
2018-06-25T19:34:56.240Z,42.02
2018-06-25T19:37:22.680Z,42.11
2018-06-25T19:39:49.039Z,42.65
2018-06-25T19:42:15.424Z,42.04
2018-06-25T19:44:41.875Z,42.28
2018-06-25T19:47:08.231Z,42.50
2018-06-25T19:49:34.601Z,42.81
2018-06-25T19:52:01.041Z,42.39
2018-06-25T19:54:27.400Z,43.10
2018-06-25T19:56:53.725Z,42.87
2018-06-25T19:59:20.063Z,42.78
2018-06-25T20:01:46.386Z,42.69
2018-06-25T20:04:12.982Z,42.49
2018-06-25T20:06:39.589Z,42.32
2018-06-25T20:09:06.088Z,42.53
2018-06-25T20:11:32.570Z,42.46
2018-06-25T20:13:59.068Z,42.66
2018-06-25T20:16:25.576Z,42.54
2018-06-25T20:18:52.017Z,42.54
2018-06-25T20:21:18.427Z,42.65
2018-06-25T20:23:44.891Z,42.82
2018-06-25T20:26:11.259Z,42.83
2018-06-25T20:28:37.636Z,42.84
2018-06-25T20:31:04.092Z,42.80
2018-06-25T20:33:30.463Z,42.85
2018-06-25T20:35:56.883Z,42.94
2018-06-25T20:38:24.234Z,42.98
2018-06-25T20:40:50.590Z,43.09
2018-06-25T20:43:16.908Z,43.10
2018-06-25T20:45:43.283Z,43.17
2018-06-25T20:48:09.895Z,43.21
2018-06-25T20:50:36.235Z,43.12
2018-06-25T20:53:02.859Z,43.26
2018-06-25T20:55:29.186Z,43.19
2018-06-25T20:57:55.695Z,43.22
2018-06-25T21:00:22.013Z,43.31
2018-06-25T21:02:48.341Z,43.31
2018-06-25T21:05:14.696Z,43.41
2018-06-25T21:07:41.084Z,43.52
2018-06-25T21:10:07.428Z,43.39
2018-06-25T21:12:33.861Z,43.45
2018-06-25T21:15:00.252Z,43.53
2018-06-25T21:17:26.898Z,43.54
2018-06-25T21:19:53.266Z,43.67
2018-06-25T21:22:19.647Z,43.68
2018-06-25T21:24:45.997Z,43.71
2018-06-25T21:27:12.328Z,43.74
2018-06-25T21:29:38.684Z,43.65
2018-06-25T21:32:05.006Z,43.72
2018-06-25T21:34:31.349Z,43.88
2018-06-25T21:36:57.718Z,43.87
2018-06-25T21:39:24.048Z,43.87
2018-06-25T21:41:50.488Z,43.92
2018-06-25T21:44:16.800Z,43.84
2018-06-25T21:46:43.166Z,43.96
2018-06-25T21:49:09.580Z,43.93
2018-06-25T21:51:36.015Z,44.01
2018-06-25T21:54:02.343Z,43.96
2018-06-25T21:56:28.782Z,43.87
2018-06-25T21:58:55.156Z,44.01
2018-06-25T22:01:21.580Z,44.15
2018-06-25T22:03:48.017Z,44.07
2018-06-25T22:06:14.359Z,44.14
2018-06-25T22:08:40.680Z,44.18
2018-06-25T22:11:07.033Z,44.08
2018-06-25T22:13:33.435Z,44.13
2018-06-25T22:15:59.935Z,44.22
2018-06-25T22:18:26.269Z,44.20
2018-06-25T22:20:52.646Z,44.19
2018-06-25T22:23:18.972Z,44.20
2018-06-25T22:25:45.319Z,44.28
2018-06-25T22:28:11.623Z,44.27
2018-06-25T22:30:37.988Z,44.23
2018-06-25T22:33:04.340Z,44.30
2018-06-25T22:35:30.683Z,44.25
2018-06-25T22:37:57.044Z,44.25
2018-06-25T22:40:23.391Z,44.35
2018-06-25T22:42:49.774Z,44.36
2018-06-25T22:45:16.113Z,44.41
2018-06-25T22:47:42.494Z,44.42
2018-06-25T22:50:09.690Z,44.35
2018-06-25T22:52:36.028Z,44.42
2018-06-25T22:55:02.387Z,44.45
2018-06-25T22:57:28.740Z,44.51
2018-06-25T22:59:55.056Z,44.38
2018-06-25T23:02:21.396Z,44.55
2018-06-25T23:04:47.813Z,44.37
2018-06-25T23:07:14.205Z,44.57
2018-06-25T23:09:40.568Z,44.59
2018-06-25T23:12:06.927Z,44.58
2018-06-25T23:14:33.432Z,44.47
2018-06-25T23:16:59.785Z,44.64
2018-06-25T23:19:26.182Z,44.67
2018-06-25T23:21:52.560Z,44.70
2018-06-25T23:24:18.931Z,44.61
2018-06-25T23:26:45.268Z,44.61
2018-06-25T23:29:11.629Z,44.51
2018-06-25T23:31:38.053Z,44.50
2018-06-25T23:34:04.466Z,44.52
2018-06-25T23:36:30.828Z,44.70
2018-06-25T23:38:57.141Z,44.57
2018-06-25T23:41:23.495Z,44.55
2018-06-25T23:43:49.936Z,44.54
2018-06-25T23:46:16.285Z,44.58
2018-06-25T23:48:42.643Z,44.53
2018-06-25T23:51:08.960Z,44.68
2018-06-25T23:53:35.339Z,44.34
2018-06-25T23:56:01.656Z,44.67
2018-06-25T23:58:28.021Z,44.60
